createdAt,value
2016-12-29T00:00:27.915Z,1034.17
2016-12-29T00:01:27.894Z,1034.11
2016-12-29T00:02:27.873Z,1034.14
2016-12-29T00:03:27.855Z,1034.12
2016-12-29T00:04:27.832Z,1034.14
2016-12-29T00:05:27.810Z,1034.13
2016-12-29T00:06:27.789Z,1034.08
2016-12-29T00:07:27.767Z,1034.07
2016-12-29T00:08:27.746Z,1034.07
2016-12-29T00:09:27.725Z,1034.09
2016-12-29T00:10:27.722Z,1034.09
2016-12-29T00:11:27.683Z,1034.03
2016-12-29T00:12:27.692Z,1034.02
2016-12-29T00:13:27.641Z,1034.01
2016-12-29T00:14:27.682Z,1034.03
2016-12-29T00:15:27.601Z,1034.03
2016-12-29T00:16:27.578Z,1033.97
2016-12-29T00:17:27.557Z,1033.97
2016-12-29T00:18:27.535Z,1033.96
2016-12-29T00:19:27.514Z,1033.96
2016-12-29T00:20:27.493Z,1034
2016-12-29T00:21:27.475Z,1034
2016-12-29T00:22:27.450Z,1033.91
2016-12-29T00:23:27.429Z,1033.93
2016-12-29T00:24:27.457Z,1033.9
2016-12-29T00:25:27.387Z,1033.92
2016-12-29T00:26:27.363Z,1033.85
2016-12-29T00:27:27.347Z,1033.85
2016-12-29T00:28:27.327Z,1033.87
2016-12-29T00:29:27.298Z,1033.86
2016-12-29T00:30:27.280Z,1033.88
2016-12-29T00:31:27.258Z,1033.91
2016-12-29T00:32:27.237Z,1033.86
2016-12-29T00:33:27.214Z,1033.88
2016-12-29T00:34:27.192Z,1033.84
2016-12-29T00:35:27.171Z,1033.88
2016-12-29T00:36:27.149Z,1033.88
2016-12-29T00:37:27.127Z,1033.86
2016-12-29T00:38:27.104Z,1033.9
2016-12-29T00:39:27.286Z,1033.88
2016-12-29T00:40:27.061Z,1033.9
2016-12-29T00:41:27.040Z,1033.88
2016-12-29T00:42:27.019Z,1033.85
2016-12-29T00:43:26.996Z,1033.83
2016-12-29T00:44:26.979Z,1033.82
2016-12-29T00:45:26.952Z,1033.87
2016-12-29T00:46:26.960Z,1033.85
2016-12-29T00:47:26.913Z,1033.88
2016-12-29T00:48:26.892Z,1033.83
2016-12-29T00:49:26.865Z,1033.88
2016-12-29T00:50:26.844Z,1033.88
2016-12-29T00:51:26.824Z,1033.83
2016-12-29T00:52:26.799Z,1033.86
2016-12-29T00:53:26.779Z,1033.85
2016-12-29T00:54:26.758Z,1033.86
2016-12-29T00:55:26.733Z,1033.84
2016-12-29T00:56:26.711Z,1033.86
2016-12-29T00:57:26.691Z,1033.85
2016-12-29T00:58:26.670Z,1033.83
2016-12-29T00:59:26.646Z,1033.85
2016-12-29T01:00:26.625Z,1033.86
2016-12-29T01:01:26.621Z,1033.83
2016-12-29T01:02:26.614Z,1033.84
2016-12-29T01:03:26.557Z,1033.86
2016-12-29T01:04:26.536Z,1033.85
2016-12-29T01:05:26.513Z,1033.84
2016-12-29T01:06:26.491Z,1033.87
2016-12-29T01:07:26.522Z,1033.86
2016-12-29T01:08:26.446Z,1033.91
2016-12-29T01:09:26.427Z,1033.85
2016-12-29T01:10:26.403Z,1033.85
2016-12-29T01:11:26.381Z,1033.85
2016-12-29T01:12:26.359Z,1033.85
2016-12-29T01:13:26.336Z,1033.86
2016-12-29T01:14:26.315Z,1033.85
2016-12-29T01:15:26.291Z,1033.85
2016-12-29T01:16:26.271Z,1033.84
2016-12-29T01:17:26.248Z,1033.82
2016-12-29T01:18:26.226Z,1033.85
2016-12-29T01:19:26.262Z,1033.83
2016-12-29T01:20:26.180Z,1033.83
2016-12-29T01:21:26.193Z,1033.8
2016-12-29T01:22:26.147Z,1033.78
2016-12-29T01:23:26.114Z,1033.74
2016-12-29T01:24:26.092Z,1033.72
2016-12-29T01:25:26.070Z,1033.72
2016-12-29T01:26:26.047Z,1033.69
2016-12-29T01:27:26.028Z,1033.72
2016-12-29T01:28:26.003Z,1033.7
2016-12-29T01:29:25.981Z,1033.72
2016-12-29T01:30:25.969Z,1033.74
2016-12-29T01:31:25.937Z,1033.7
2016-12-29T01:32:25.913Z,1033.68
2016-12-29T01:33:25.892Z,1033.69
2016-12-29T01:34:25.869Z,1033.7
2016-12-29T01:35:25.845Z,1033.69
2016-12-29T01:36:25.824Z,1033.66
2016-12-29T01:37:25.801Z,1033.65
2016-12-29T01:38:25.781Z,1033.66
2016-12-29T01:39:25.757Z,1033.63
2016-12-29T01:40:25.733Z,1033.67
2016-12-29T01:41:25.713Z,1033.61
2016-12-29T01:42:25.689Z,1033.64
2016-12-29T01:43:25.666Z,1033.67
2016-12-29T01:44:25.645Z,1033.63
2016-12-29T01:45:25.623Z,1033.61
2016-12-29T01:46:25.601Z,1033.62
2016-12-29T01:47:25.576Z,1033.6
2016-12-29T01:48:25.555Z,1033.56
2016-12-29T01:49:25.535Z,1033.53
2016-12-29T01:50:25.511Z,1033.54
2016-12-29T01:51:25.489Z,1033.52
2016-12-29T01:52:25.466Z,1033.52
2016-12-29T01:53:25.442Z,1033.55
2016-12-29T01:54:25.421Z,1033.5
2016-12-29T01:55:25.397Z,1033.57
2016-12-29T01:56:25.377Z,1033.53
2016-12-29T01:57:25.352Z,1033.54
2016-12-29T01:58:25.330Z,1033.52
2016-12-29T01:59:25.309Z,1033.54
2016-12-29T02:00:25.285Z,1033.54
2016-12-29T02:01:25.263Z,1033.55
2016-12-29T02:02:25.241Z,1033.54
2016-12-29T02:03:25.218Z,1033.49
2016-12-29T02:04:25.195Z,1033.49
2016-12-29T02:05:25.174Z,1033.5
2016-12-29T02:06:25.159Z,1033.5
2016-12-29T02:07:25.128Z,1033.54
2016-12-29T02:08:25.104Z,1033.5
2016-12-29T02:09:25.083Z,1033.53
2016-12-29T02:10:25.060Z,1033.54
2016-12-29T02:11:25.036Z,1033.56
2016-12-29T02:12:25.012Z,1033.53
2016-12-29T02:13:24.991Z,1033.51
2016-12-29T02:14:24.968Z,1033.52
2016-12-29T02:15:24.945Z,1033.5
2016-12-29T02:16:24.922Z,1033.46
2016-12-29T02:17:24.900Z,1033.44
2016-12-29T02:18:24.877Z,1033.4
2016-12-29T02:19:24.854Z,1033.39
2016-12-29T02:20:24.830Z,1033.35
2016-12-29T02:21:24.810Z,1033.34
2016-12-29T02:22:24.786Z,1033.38
2016-12-29T02:23:24.763Z,1033.35
2016-12-29T02:24:24.741Z,1033.34
2016-12-29T02:25:24.716Z,1033.36
2016-12-29T02:26:24.696Z,1033.3
2016-12-29T02:27:24.671Z,1033.28
2016-12-29T02:28:24.648Z,1033.26
2016-12-29T02:29:24.626Z,1033.24
2016-12-29T02:30:24.602Z,1033.21
2016-12-29T02:31:24.579Z,1033.16
2016-12-29T02:32:24.560Z,1033.2
2016-12-29T02:33:24.534Z,1033.22
2016-12-29T02:34:24.511Z,1033.18
2016-12-29T02:35:24.488Z,1033.21
2016-12-29T02:36:24.464Z,1033.18
2016-12-29T02:37:24.442Z,1033.2
2016-12-29T02:38:24.419Z,1033.19
2016-12-29T02:39:24.599Z,1033.19
2016-12-29T02:40:24.373Z,1033.2
2016-12-29T02:41:24.350Z,1033.19
2016-12-29T02:42:24.328Z,1033.21
2016-12-29T02:43:24.303Z,1033.18
2016-12-29T02:44:24.282Z,1033.22
2016-12-29T02:45:24.259Z,1033.16
2016-12-29T02:46:24.237Z,1033.15
2016-12-29T02:47:24.212Z,1033.15
2016-12-29T02:48:24.189Z,1033.13
2016-12-29T02:49:24.167Z,1033.12
2016-12-29T02:50:24.142Z,1033.1
2016-12-29T02:51:24.119Z,1033.13
2016-12-29T02:52:24.096Z,1033.12
2016-12-29T02:53:24.075Z,1033.14
2016-12-29T02:54:24.050Z,1033.09
2016-12-29T02:55:24.028Z,1033.07
2016-12-29T02:56:24.004Z,1033.06
2016-12-29T02:57:23.981Z,1033.04
2016-12-29T02:58:23.959Z,1033.04
2016-12-29T02:59:23.944Z,1033.04
2016-12-29T03:00:23.911Z,1033.03
2016-12-29T03:01:23.889Z,1033.05
2016-12-29T03:02:23.868Z,1033.03
2016-12-29T03:03:23.844Z,1033.02
2016-12-29T03:04:23.819Z,1033.03
2016-12-29T03:05:23.795Z,1033.05
2016-12-29T03:06:23.776Z,1033.12
2016-12-29T03:07:23.750Z,1033.14
2016-12-29T03:08:23.726Z,1033.16
2016-12-29T03:09:23.703Z,1033.11
2016-12-29T03:10:23.720Z,1033.11
2016-12-29T03:11:23.655Z,1033.04
2016-12-29T03:12:23.633Z,1033.05
2016-12-29T03:13:23.610Z,1032.98
2016-12-29T03:14:23.585Z,1033.02
2016-12-29T03:15:23.564Z,1033
2016-12-29T03:16:23.539Z,1032.96
2016-12-29T03:17:23.515Z,1032.99
2016-12-29T03:18:23.491Z,1033
2016-12-29T03:19:23.470Z,1032.97
2016-12-29T03:20:23.450Z,1032.98
2016-12-29T03:21:23.424Z,1033.01
2016-12-29T03:22:23.402Z,1032.99
2016-12-29T03:23:23.375Z,1033.03
2016-12-29T03:24:23.371Z,1033.03
2016-12-29T03:25:23.329Z,1033.03
2016-12-29T03:26:23.321Z,1033.04
2016-12-29T03:27:23.287Z,1033.03
2016-12-29T03:28:23.260Z,1033.08
2016-12-29T03:29:23.236Z,1033.09
2016-12-29T03:30:23.226Z,1033.11
2016-12-29T03:31:23.190Z,1033.11
2016-12-29T03:32:23.165Z,1033.08
2016-12-29T03:33:23.142Z,1033.09
2016-12-29T03:34:23.119Z,1033.06
2016-12-29T03:35:23.095Z,1033
2016-12-29T03:36:23.071Z,1033.04
2016-12-29T03:37:23.048Z,1033.03
2016-12-29T03:38:23.029Z,1033.03
2016-12-29T03:39:23.001Z,1033.03
2016-12-29T03:40:22.977Z,1033.01
2016-12-29T03:41:22.954Z,1033
2016-12-29T03:42:22.931Z,1032.99
2016-12-29T03:43:22.908Z,1033
2016-12-29T03:44:22.883Z,1033
2016-12-29T03:45:22.873Z,1032.99
2016-12-29T03:46:22.837Z,1032.94
2016-12-29T03:47:22.814Z,1032.97
2016-12-29T03:48:22.789Z,1032.92
2016-12-29T03:49:22.767Z,1032.92
2016-12-29T03:50:22.742Z,1032.92
2016-12-29T03:51:22.720Z,1032.82
2016-12-29T03:52:22.696Z,1032.86
2016-12-29T03:53:22.672Z,1032.85
2016-12-29T03:54:22.648Z,1032.88
2016-12-29T03:55:22.625Z,1032.87
2016-12-29T03:56:22.604Z,1032.87
2016-12-29T03:57:22.580Z,1032.9
2016-12-29T03:58:22.558Z,1032.89
2016-12-29T03:59:22.535Z,1032.9
2016-12-29T04:00:22.509Z,1032.96
2016-12-29T04:01:22.486Z,1032.99
2016-12-29T04:02:22.463Z,1032.99
2016-12-29T04:03:22.439Z,1032.99
2016-12-29T04:04:22.415Z,1032.95
2016-12-29T04:05:22.392Z,1032.97
2016-12-29T04:06:22.367Z,1032.96
2016-12-29T04:07:22.344Z,1032.99
2016-12-29T04:08:22.321Z,1032.91
2016-12-29T04:09:22.298Z,1032.93
2016-12-29T04:10:22.278Z,1032.97
2016-12-29T04:11:22.251Z,1032.94
2016-12-29T04:12:22.226Z,1032.97
2016-12-29T04:13:22.203Z,1032.97
2016-12-29T04:14:22.180Z,1032.96
2016-12-29T04:15:22.156Z,1032.99
2016-12-29T04:16:22.132Z,1032.94
2016-12-29T04:17:22.113Z,1032.97
2016-12-29T04:18:22.086Z,1032.95
2016-12-29T04:19:22.068Z,1032.93
2016-12-29T04:20:22.048Z,1032.98
2016-12-29T04:21:22.015Z,1032.93
2016-12-29T04:22:21.992Z,1032.91
2016-12-29T04:23:21.968Z,1032.9
2016-12-29T04:24:21.945Z,1032.88
2016-12-29T04:25:21.921Z,1032.92
2016-12-29T04:26:21.898Z,1032.89
2016-12-29T04:27:21.876Z,1032.85
2016-12-29T04:28:21.850Z,1032.88
2016-12-29T04:29:21.827Z,1032.89
2016-12-29T04:30:21.803Z,1032.9
2016-12-29T04:31:21.781Z,1032.89
2016-12-29T04:32:21.788Z,1032.93
2016-12-29T04:33:21.738Z,1032.91
2016-12-29T04:34:21.709Z,1032.9
2016-12-29T04:35:21.687Z,1032.9
2016-12-29T04:36:21.663Z,1032.89
2016-12-29T04:37:21.640Z,1032.86
2016-12-29T04:38:21.615Z,1032.86
2016-12-29T04:39:21.593Z,1032.81
2016-12-29T04:40:21.569Z,1032.81
2016-12-29T04:41:21.545Z,1032.84
2016-12-29T04:42:21.524Z,1032.85
2016-12-29T04:43:21.498Z,1032.87
2016-12-29T04:44:21.475Z,1032.83
2016-12-29T04:45:21.450Z,1032.86
2016-12-29T04:46:21.428Z,1032.89
2016-12-29T04:47:21.404Z,1032.86
2016-12-29T04:48:21.381Z,1032.85
2016-12-29T04:49:21.356Z,1032.83
2016-12-29T04:50:21.333Z,1032.81
2016-12-29T04:51:21.309Z,1032.82
2016-12-29T04:52:21.286Z,1032.84
2016-12-29T04:53:21.263Z,1032.84
2016-12-29T04:54:21.238Z,1032.88
2016-12-29T04:55:21.215Z,1032.83
2016-12-29T04:56:21.193Z,1032.83
2016-12-29T04:57:21.169Z,1032.83
2016-12-29T04:58:21.144Z,1032.82
2016-12-29T04:59:21.123Z,1032.8
2016-12-29T05:00:21.098Z,1032.81
2016-12-29T05:01:21.074Z,1032.79
2016-12-29T05:02:21.050Z,1032.85
2016-12-29T05:03:21.027Z,1032.84
2016-12-29T05:04:21.003Z,1032.87
2016-12-29T05:05:20.978Z,1032.9
2016-12-29T05:06:20.956Z,1032.87
2016-12-29T05:07:20.933Z,1032.88
2016-12-29T05:08:20.907Z,1032.88
2016-12-29T05:09:20.885Z,1032.89
2016-12-29T05:10:20.860Z,1032.86
2016-12-29T05:11:20.838Z,1032.89
2016-12-29T05:12:20.813Z,1032.87
2016-12-29T05:13:20.790Z,1032.87
2016-12-29T05:14:20.765Z,1032.87
2016-12-29T05:15:20.742Z,1032.88
2016-12-29T05:16:20.718Z,1032.91
2016-12-29T05:17:20.694Z,1032.92
2016-12-29T05:18:20.671Z,1032.97
2016-12-29T05:19:20.646Z,1032.96
2016-12-29T05:20:20.623Z,1032.98
2016-12-29T05:21:20.601Z,1032.97
2016-12-29T05:22:20.577Z,1032.97
2016-12-29T05:23:20.553Z,1032.97
2016-12-29T05:24:20.528Z,1032.97
2016-12-29T05:25:20.505Z,1032.99
2016-12-29T05:26:20.480Z,1033
2016-12-29T05:27:20.457Z,1032.95
2016-12-29T05:28:20.432Z,1032.95
2016-12-29T05:29:20.410Z,1032.93
2016-12-29T05:30:20.386Z,1032.91
2016-12-29T05:31:20.363Z,1032.93
2016-12-29T05:32:20.340Z,1032.91
2016-12-29T05:33:20.315Z,1032.86
2016-12-29T05:34:20.294Z,1032.88
2016-12-29T05:35:20.266Z,1032.85
2016-12-29T05:36:20.243Z,1032.85
2016-12-29T05:37:20.221Z,1032.85
2016-12-29T05:38:20.209Z,1032.86
2016-12-29T05:39:20.173Z,1032.86
2016-12-29T05:40:20.148Z,1032.82
2016-12-29T05:41:20.125Z,1032.87
2016-12-29T05:42:20.100Z,1032.82
2016-12-29T05:43:20.077Z,1032.85
2016-12-29T05:44:20.053Z,1032.84
2016-12-29T05:45:20.030Z,1032.79
2016-12-29T05:46:20.005Z,1032.8
2016-12-29T05:47:19.981Z,1032.83
2016-12-29T05:48:19.958Z,1032.73
2016-12-29T05:49:19.935Z,1032.75
2016-12-29T05:50:19.911Z,1032.76
2016-12-29T05:51:19.887Z,1032.7
2016-12-29T05:52:19.865Z,1032.76
2016-12-29T05:53:19.840Z,1032.73
2016-12-29T05:54:19.816Z,1032.71
2016-12-29T05:55:19.791Z,1032.7
2016-12-29T05:56:19.770Z,1032.75
2016-12-29T05:57:19.745Z,1032.73
2016-12-29T05:58:19.720Z,1032.73
2016-12-29T05:59:19.697Z,1032.74
2016-12-29T06:00:19.675Z,1032.78
2016-12-29T06:01:19.651Z,1032.77
2016-12-29T06:02:19.625Z,1032.76
2016-12-29T06:03:19.603Z,1032.78
2016-12-29T06:04:19.579Z,1032.78
2016-12-29T06:05:19.555Z,1032.74
2016-12-29T06:06:19.530Z,1032.74
2016-12-29T06:07:19.507Z,1032.8
2016-12-29T06:08:19.483Z,1032.76
2016-12-29T06:09:19.462Z,1032.76
2016-12-29T06:10:19.438Z,1032.8
2016-12-29T06:11:19.413Z,1032.79
2016-12-29T06:12:19.389Z,1032.76
2016-12-29T06:13:19.363Z,1032.79
2016-12-29T06:14:19.340Z,1032.75
2016-12-29T06:15:19.317Z,1032.73
2016-12-29T06:16:19.292Z,1032.78
2016-12-29T06:17:19.270Z,1032.75
2016-12-29T06:18:19.244Z,1032.74
2016-12-29T06:19:19.221Z,1032.78
2016-12-29T06:20:19.197Z,1032.79
2016-12-29T06:21:19.172Z,1032.82
2016-12-29T06:22:19.148Z,1032.83
2016-12-29T06:23:19.126Z,1032.84
2016-12-29T06:24:19.101Z,1032.86
2016-12-29T06:25:19.078Z,1032.88
2016-12-29T06:26:19.053Z,1032.86
2016-12-29T06:27:19.030Z,1032.88
2016-12-29T06:28:19.005Z,1032.92
2016-12-29T06:29:18.981Z,1032.94
2016-12-29T06:30:18.964Z,1032.93
2016-12-29T06:31:18.935Z,1032.89
2016-12-29T06:32:18.912Z,1032.91
2016-12-29T06:33:18.888Z,1032.9
2016-12-29T06:34:18.866Z,1032.89
2016-12-29T06:35:18.837Z,1032.89
2016-12-29T06:36:18.815Z,1032.9
2016-12-29T06:37:18.791Z,1032.89
2016-12-29T06:38:18.766Z,1032.86
2016-12-29T06:39:18.744Z,1032.84
2016-12-29T06:40:18.922Z,1032.82
2016-12-29T06:41:18.695Z,1032.86
2016-12-29T06:42:18.671Z,1032.83
2016-12-29T06:43:18.650Z,1032.86
2016-12-29T06:44:18.626Z,1032.87
2016-12-29T06:45:18.601Z,1032.86
2016-12-29T06:46:18.576Z,1032.88
2016-12-29T06:47:18.552Z,1032.84
2016-12-29T06:48:18.527Z,1032.87
2016-12-29T06:49:18.504Z,1032.8
2016-12-29T06:50:18.482Z,1032.86
2016-12-29T06:51:18.455Z,1032.79
2016-12-29T06:52:18.432Z,1032.79
2016-12-29T06:53:18.407Z,1032.75
2016-12-29T06:54:18.383Z,1032.73
2016-12-29T06:55:18.363Z,1032.77
2016-12-29T06:56:18.340Z,1032.78
2016-12-29T06:57:18.311Z,1032.78
2016-12-29T06:58:18.286Z,1032.77
2016-12-29T06:59:18.268Z,1032.8
2016-12-29T07:00:18.239Z,1032.83
2016-12-29T07:01:18.217Z,1032.78
2016-12-29T07:02:18.192Z,1032.83
2016-12-29T07:03:18.167Z,1032.8
2016-12-29T07:04:18.143Z,1032.78
2016-12-29T07:05:18.119Z,1032.78
2016-12-29T07:06:18.094Z,1032.75
2016-12-29T07:07:18.071Z,1032.68
2016-12-29T07:08:18.045Z,1032.69
2016-12-29T07:09:18.024Z,1032.71
2016-12-29T07:10:17.998Z,1032.68
2016-12-29T07:11:17.975Z,1032.71
2016-12-29T07:12:17.951Z,1032.69
2016-12-29T07:13:17.925Z,1032.73
2016-12-29T07:14:17.902Z,1032.77
2016-12-29T07:15:17.877Z,1032.77
2016-12-29T07:16:17.855Z,1032.75
2016-12-29T07:17:17.830Z,1032.74
2016-12-29T07:18:17.807Z,1032.73
2016-12-29T07:19:17.781Z,1032.75
2016-12-29T07:20:17.756Z,1032.78
2016-12-29T07:21:17.733Z,1032.8
2016-12-29T07:22:17.709Z,1032.78
2016-12-29T07:23:17.688Z,1032.77
2016-12-29T07:24:17.662Z,1032.76
2016-12-29T07:25:17.637Z,1032.74
2016-12-29T07:26:17.612Z,1032.73
2016-12-29T07:27:17.589Z,1032.72
2016-12-29T07:28:17.566Z,1032.72
2016-12-29T07:29:17.590Z,1032.67
2016-12-29T07:30:17.521Z,1032.68
2016-12-29T07:31:17.497Z,1032.67
2016-12-29T07:32:17.469Z,1032.69
2016-12-29T07:33:17.444Z,1032.67
2016-12-29T07:34:17.422Z,1032.66
2016-12-29T07:35:17.397Z,1032.64
2016-12-29T07:36:17.372Z,1032.67
2016-12-29T07:37:17.347Z,1032.69
2016-12-29T07:38:17.323Z,1032.64
2016-12-29T07:39:17.300Z,1032.67
2016-12-29T07:40:17.275Z,1032.71
2016-12-29T07:41:17.251Z,1032.68
2016-12-29T07:42:17.228Z,1032.7
2016-12-29T07:43:17.212Z,1032.65
2016-12-29T07:44:17.183Z,1032.65
2016-12-29T07:45:17.155Z,1032.63
2016-12-29T07:46:17.130Z,1032.63
2016-12-29T07:47:17.107Z,1032.62
2016-12-29T07:48:17.083Z,1032.64
2016-12-29T07:49:17.058Z,1032.62
2016-12-29T07:50:17.034Z,1032.64
2016-12-29T07:51:17.010Z,1032.63
2016-12-29T07:52:16.988Z,1032.68
2016-12-29T07:53:16.964Z,1032.69
2016-12-29T07:54:16.938Z,1032.62
2016-12-29T07:55:16.913Z,1032.64
2016-12-29T07:56:16.890Z,1032.64
2016-12-29T07:57:16.866Z,1032.63
2016-12-29T07:58:16.843Z,1032.71
2016-12-29T07:59:16.820Z,1032.69
2016-12-29T08:00:16.795Z,1032.75
2016-12-29T08:01:16.769Z,1032.75
2016-12-29T08:02:16.745Z,1032.78
2016-12-29T08:03:16.720Z,1032.75
2016-12-29T08:04:16.697Z,1032.78
2016-12-29T08:05:16.674Z,1032.73
2016-12-29T08:06:16.649Z,1032.73
2016-12-29T08:07:16.626Z,1032.73
2016-12-29T08:08:16.601Z,1032.75
2016-12-29T08:09:16.578Z,1032.75
2016-12-29T08:10:16.557Z,1032.77
2016-12-29T08:11:16.529Z,1032.76
2016-12-29T08:12:16.507Z,1032.8
2016-12-29T08:13:16.482Z,1032.74
2016-12-29T08:14:16.458Z,1032.76
2016-12-29T08:15:16.584Z,1032.74
2016-12-29T08:16:16.416Z,1032.77
2016-12-29T08:17:16.390Z,1032.76
2016-12-29T08:18:16.363Z,1032.77
2016-12-29T08:19:16.338Z,1032.8
2016-12-29T08:20:16.315Z,1032.78
2016-12-29T08:21:16.293Z,1032.76
2016-12-29T08:22:16.267Z,1032.76
2016-12-29T08:23:16.242Z,1032.78
2016-12-29T08:24:16.218Z,1032.79
2016-12-29T08:25:16.195Z,1032.81
2016-12-29T08:26:16.171Z,1032.76
2016-12-29T08:27:16.148Z,1032.76
2016-12-29T08:28:16.123Z,1032.74
2016-12-29T08:29:16.098Z,1032.73
2016-12-29T08:30:16.075Z,1032.7
2016-12-29T08:31:16.052Z,1032.73
2016-12-29T08:32:16.027Z,1032.7
2016-12-29T08:33:16.006Z,1032.74
2016-12-29T08:34:15.984Z,1032.76
2016-12-29T08:35:15.956Z,1032.78
2016-12-29T08:36:15.934Z,1032.77
2016-12-29T08:37:15.908Z,1032.74
2016-12-29T08:38:15.887Z,1032.74
2016-12-29T08:39:15.861Z,1032.72
2016-12-29T08:40:16.042Z,1032.68
2016-12-29T08:41:15.815Z,1032.63
2016-12-29T08:42:15.791Z,1032.61
2016-12-29T08:43:15.769Z,1032.55
2016-12-29T08:44:15.744Z,1032.55
2016-12-29T08:45:15.722Z,1032.62
2016-12-29T08:46:15.709Z,1032.58
2016-12-29T08:47:15.680Z,1032.58
2016-12-29T08:48:15.650Z,1032.61
2016-12-29T08:49:15.630Z,1032.56
2016-12-29T08:50:15.600Z,1032.57
2016-12-29T08:51:15.579Z,1032.59
2016-12-29T08:52:15.554Z,1032.56
2016-12-29T08:53:15.533Z,1032.54
2016-12-29T08:54:15.507Z,1032.55
2016-12-29T08:55:15.484Z,1032.53
2016-12-29T08:56:15.460Z,1032.55
2016-12-29T08:57:15.437Z,1032.56
2016-12-29T08:58:15.415Z,1032.54
2016-12-29T08:59:15.390Z,1032.58
2016-12-29T09:00:15.368Z,1032.54
2016-12-29T09:01:15.343Z,1032.55
2016-12-29T09:02:15.321Z,1032.45
2016-12-29T09:03:15.299Z,1032.51
2016-12-29T09:04:15.274Z,1032.48
2016-12-29T09:05:15.251Z,1032.45
2016-12-29T09:06:15.229Z,1032.41
2016-12-29T09:07:15.206Z,1032.42
2016-12-29T09:08:15.180Z,1032.4
2016-12-29T09:09:15.158Z,1032.37
2016-12-29T09:10:15.135Z,1032.34
2016-12-29T09:11:15.112Z,1032.32
2016-12-29T09:12:15.088Z,1032.34
2016-12-29T09:13:15.064Z,1032.32
2016-12-29T09:14:15.042Z,1032.39
2016-12-29T09:15:15.018Z,1032.35
2016-12-29T09:16:15.001Z,1032.34
2016-12-29T09:17:14.976Z,1032.38
2016-12-29T09:18:14.948Z,1032.42
2016-12-29T09:19:14.925Z,1032.41
2016-12-29T09:20:14.900Z,1032.44
2016-12-29T09:21:14.880Z,1032.47
2016-12-29T09:22:14.858Z,1032.47
2016-12-29T09:23:14.833Z,1032.5
2016-12-29T09:24:14.809Z,1032.49
2016-12-29T09:25:14.786Z,1032.5
2016-12-29T09:26:14.763Z,1032.51
2016-12-29T09:27:14.740Z,1032.52
2016-12-29T09:28:14.717Z,1032.54
2016-12-29T09:29:14.695Z,1032.51
2016-12-29T09:30:14.671Z,1032.51
2016-12-29T09:31:14.649Z,1032.51
2016-12-29T09:32:14.628Z,1032.49
2016-12-29T09:33:14.603Z,1032.51
2016-12-29T09:34:14.586Z,1032.48
2016-12-29T09:35:14.557Z,1032.44
2016-12-29T09:37:14.512Z,1032.43
2016-12-29T09:38:14.489Z,1032.44
2016-12-29T09:39:14.467Z,1032.48
2016-12-29T09:40:14.450Z,1032.52
2016-12-29T09:41:14.425Z,1032.5
2016-12-29T09:42:14.410Z,1032.54
2016-12-29T09:43:14.377Z,1032.53
2016-12-29T09:44:14.355Z,1032.52
2016-12-29T09:45:14.331Z,1032.53
2016-12-29T09:46:14.311Z,1032.53
2016-12-29T09:47:14.289Z,1032.56
2016-12-29T09:48:14.266Z,1032.49
2016-12-29T09:49:14.245Z,1032.49
2016-12-29T09:50:14.224Z,1032.48
2016-12-29T09:51:14.199Z,1032.46
2016-12-29T09:52:14.178Z,1032.45
2016-12-29T09:53:14.156Z,1032.51
2016-12-29T09:54:14.134Z,1032.47
2016-12-29T09:55:14.112Z,1032.46
2016-12-29T09:56:14.088Z,1032.5
2016-12-29T09:57:14.068Z,1032.4
2016-12-29T09:58:14.047Z,1032.4
2016-12-29T09:59:14.025Z,1032.39
2016-12-29T10:00:14.004Z,1032.41
2016-12-29T10:01:13.983Z,1032.33
2016-12-29T10:02:13.964Z,1032.4
2016-12-29T10:03:13.947Z,1032.38
2016-12-29T10:04:13.922Z,1032.43
2016-12-29T10:05:13.902Z,1032.44
2016-12-29T10:06:13.939Z,1032.47
2016-12-29T10:07:13.865Z,1032.53
2016-12-29T10:08:13.845Z,1032.41
2016-12-29T10:09:13.825Z,1032.4
2016-12-29T10:10:13.807Z,1032.38
2016-12-29T10:11:13.789Z,1032.38
2016-12-29T10:12:13.769Z,1032.35
2016-12-29T10:13:13.757Z,1032.3
2016-12-29T10:14:13.735Z,1032.3
2016-12-29T10:15:13.716Z,1032.27
2016-12-29T10:16:13.699Z,1032.22
2016-12-29T10:17:13.683Z,1032.26
2016-12-29T10:18:13.665Z,1032.27
2016-12-29T10:19:13.651Z,1032.32
2016-12-29T10:20:13.635Z,1032.33
2016-12-29T10:21:13.619Z,1032.34
2016-12-29T10:22:13.601Z,1032.32
2016-12-29T10:23:13.585Z,1032.35
2016-12-29T10:24:13.573Z,1032.37
2016-12-29T10:25:13.556Z,1032.36
2016-12-29T10:26:13.542Z,1032.34
2016-12-29T10:27:13.526Z,1032.35
2016-12-29T10:28:13.514Z,1032.34
2016-12-29T10:29:13.499Z,1032.34
2016-12-29T10:30:13.482Z,1032.34
2016-12-29T10:31:13.468Z,1032.35
2016-12-29T10:32:13.454Z,1032.37
2016-12-29T10:33:13.438Z,1032.36
2016-12-29T10:34:13.425Z,1032.37
2016-12-29T10:35:13.413Z,1032.38
2016-12-29T10:36:13.395Z,1032.37
2016-12-29T10:37:13.381Z,1032.36
2016-12-29T10:38:13.368Z,1032.38
2016-12-29T10:39:13.353Z,1032.34
2016-12-29T10:40:13.542Z,1032.34
2016-12-29T10:41:13.329Z,1032.33
2016-12-29T10:42:13.312Z,1032.26
2016-12-29T10:43:13.302Z,1032.24
2016-12-29T10:44:13.284Z,1032.22
2016-12-29T10:45:13.272Z,1032.22
2016-12-29T10:46:13.259Z,1032.2
2016-12-29T10:47:13.247Z,1032.17
2016-12-29T10:48:13.232Z,1032.2
2016-12-29T10:49:13.220Z,1032.23
2016-12-29T10:50:13.207Z,1032.24
2016-12-29T10:51:13.195Z,1032.19
2016-12-29T10:52:13.181Z,1032.17
2016-12-29T10:53:13.168Z,1032.13
2016-12-29T10:54:13.153Z,1032.13
2016-12-29T10:55:13.142Z,1032.09
2016-12-29T10:56:13.129Z,1032.08
2016-12-29T10:57:13.116Z,1032.02
2016-12-29T10:58:13.101Z,1032.01
2016-12-29T10:59:13.092Z,1032.05
2016-12-29T11:00:13.079Z,1032.02
2016-12-29T11:01:13.063Z,1032.04
2016-12-29T11:02:13.051Z,1032.03
2016-12-29T11:03:13.037Z,1032.03
2016-12-29T11:04:13.024Z,1032
2016-12-29T11:05:13.012Z,1032.02
2016-12-29T11:06:12.999Z,1031.97
2016-12-29T11:07:12.998Z,1031.99
2016-12-29T11:08:12.974Z,1031.94
2016-12-29T11:09:12.963Z,1031.95
2016-12-29T11:10:12.952Z,1031.98
2016-12-29T11:11:12.936Z,1031.95
2016-12-29T11:12:12.923Z,1031.94
2016-12-29T11:13:12.911Z,1031.96
2016-12-29T11:14:12.900Z,1031.94
2016-12-29T11:15:13.098Z,1031.96
2016-12-29T11:16:12.877Z,1031.97
2016-12-29T11:17:12.863Z,1032.03
2016-12-29T11:18:12.851Z,1031.99
2016-12-29T11:19:12.841Z,1031.98
2016-12-29T11:20:12.828Z,1031.96
2016-12-29T11:21:12.823Z,1031.95
2016-12-29T11:22:12.807Z,1031.91
2016-12-29T11:23:12.793Z,1031.93
2016-12-29T11:24:12.781Z,1031.91
2016-12-29T11:25:12.769Z,1031.91
2016-12-29T11:26:12.758Z,1031.88
2016-12-29T11:27:12.745Z,1031.89
2016-12-29T11:28:12.734Z,1031.94
2016-12-29T11:29:12.723Z,1031.96
2016-12-29T11:30:12.710Z,1031.97
2016-12-29T11:31:12.712Z,1031.91
2016-12-29T11:32:12.689Z,1031.9
2016-12-29T11:33:12.676Z,1031.88
2016-12-29T11:34:12.662Z,1031.83
2016-12-29T11:35:12.654Z,1031.83
2016-12-29T11:36:12.644Z,1031.78
2016-12-29T11:37:12.627Z,1031.75
2016-12-29T11:38:12.610Z,1031.75
2016-12-29T11:39:12.600Z,1031.75
2016-12-29T11:40:12.584Z,1031.71
2016-12-29T11:41:12.572Z,1031.69
2016-12-29T11:42:12.558Z,1031.66
2016-12-29T11:43:12.544Z,1031.66
2016-12-29T11:44:12.531Z,1031.68
2016-12-29T11:45:12.514Z,1031.61
2016-12-29T11:46:12.501Z,1031.58
2016-12-29T11:47:12.486Z,1031.61
2016-12-29T11:48:12.472Z,1031.59
2016-12-29T11:49:12.459Z,1031.58
2016-12-29T11:50:12.447Z,1031.53
2016-12-29T11:51:12.427Z,1031.54
2016-12-29T11:52:12.414Z,1031.56
2016-12-29T11:53:12.398Z,1031.53
2016-12-29T11:54:12.388Z,1031.54
2016-12-29T11:55:12.368Z,1031.56
2016-12-29T11:56:12.356Z,1031.52
2016-12-29T11:57:12.334Z,1031.56
2016-12-29T11:58:12.321Z,1031.51
2016-12-29T11:59:12.303Z,1031.52
2016-12-29T12:00:12.287Z,1031.52
2016-12-29T12:01:12.273Z,1031.53
2016-12-29T12:02:12.258Z,1031.49
2016-12-29T12:03:12.241Z,1031.48
2016-12-29T12:04:12.223Z,1031.5
2016-12-29T12:05:12.206Z,1031.49
2016-12-29T12:06:12.191Z,1031.44
2016-12-29T12:07:12.176Z,1031.45
2016-12-29T12:08:12.158Z,1031.43
2016-12-29T12:09:12.139Z,1031.44